createdAt,value
2022-10-04T00:01:11.524Z,15.70
2022-10-04T00:03:37.839Z,15.63
2022-10-04T00:06:04.220Z,15.65
2022-10-04T00:08:30.554Z,15.68
2022-10-04T00:10:56.872Z,15.54
2022-10-04T00:13:23.228Z,15.50
2022-10-04T00:15:49.591Z,15.49
2022-10-04T00:18:15.929Z,15.57
2022-10-04T00:20:42.288Z,15.63
2022-10-04T00:23:08.601Z,15.68
2022-10-04T00:25:34.925Z,15.62
2022-10-04T00:28:01.324Z,15.65
2022-10-04T00:30:27.567Z,15.60
2022-10-04T00:32:53.938Z,15.58
2022-10-04T00:35:20.277Z,15.56
2022-10-04T00:37:46.593Z,15.59
2022-10-04T00:40:12.939Z,15.53
2022-10-04T00:42:39.255Z,15.46
2022-10-04T00:45:05.597Z,15.43
2022-10-04T00:47:32.081Z,15.33
2022-10-04T00:49:58.258Z,15.45
2022-10-04T00:52:24.604Z,15.44
2022-10-04T00:54:50.925Z,15.41
2022-10-04T00:57:17.265Z,15.43
2022-10-04T00:59:43.600Z,15.35
2022-10-04T01:02:10.001Z,15.34
2022-10-04T01:04:36.278Z,15.29
2022-10-04T01:07:02.624Z,15.28
2022-10-04T01:09:28.946Z,15.26
2022-10-04T01:11:55.294Z,15.22
2022-10-04T01:14:21.608Z,15.20
2022-10-04T01:16:48.014Z,15.16
2022-10-04T01:19:14.326Z,15.20
2022-10-04T01:21:40.881Z,15.16
2022-10-04T01:24:06.990Z,15.18
2022-10-04T01:26:33.337Z,15.18
2022-10-04T01:28:59.649Z,15.20
2022-10-04T01:31:26.086Z,15.23
2022-10-04T01:33:52.339Z,15.13
2022-10-04T01:36:18.667Z,15.10
2022-10-04T01:38:45.029Z,15.09
2022-10-04T01:41:11.369Z,15.07
2022-10-04T01:43:37.684Z,15.06
2022-10-04T01:46:04.082Z,15.06
2022-10-04T01:48:30.370Z,15.03
2022-10-04T01:50:56.690Z,14.97
2022-10-04T01:53:23.025Z,14.98
2022-10-04T01:55:49.347Z,14.90
2022-10-04T01:58:15.664Z,14.89
2022-10-04T02:00:41.994Z,14.76
2022-10-04T02:03:08.310Z,14.77
2022-10-04T02:05:34.655Z,14.71
2022-10-04T02:08:00.992Z,14.66
2022-10-04T02:10:27.312Z,14.67
2022-10-04T02:12:53.671Z,14.61
2022-10-04T02:15:20.022Z,14.64
2022-10-04T02:17:46.352Z,14.69
2022-10-04T02:20:12.682Z,14.64
2022-10-04T02:22:39.013Z,14.64
2022-10-04T02:25:05.332Z,14.52
2022-10-04T02:27:31.686Z,14.51
2022-10-04T02:29:58.028Z,14.42
2022-10-04T02:32:24.339Z,14.46
2022-10-04T02:34:50.685Z,14.49
2022-10-04T02:37:17.083Z,14.50
2022-10-04T02:39:43.422Z,14.46
2022-10-04T02:42:09.764Z,14.44
2022-10-04T02:44:36.082Z,14.43
2022-10-04T02:47:02.404Z,14.41
2022-10-04T02:49:28.753Z,14.48
2022-10-04T02:51:55.059Z,14.54
2022-10-04T02:54:21.402Z,14.52
2022-10-04T02:56:47.740Z,14.44
2022-10-04T02:59:14.068Z,14.46
2022-10-04T03:01:40.730Z,14.51
2022-10-04T03:04:06.762Z,14.55
2022-10-04T03:06:33.096Z,14.59
2022-10-04T03:08:59.483Z,14.57
2022-10-04T03:11:25.796Z,14.54
2022-10-04T03:13:52.142Z,14.63
2022-10-04T03:16:18.540Z,14.69
2022-10-04T03:18:44.798Z,14.77
2022-10-04T03:21:11.116Z,14.79
2022-10-04T03:23:37.444Z,14.77
2022-10-04T03:26:03.761Z,14.74
2022-10-04T03:28:30.175Z,14.81
2022-10-04T03:30:56.501Z,14.86
2022-10-04T03:33:22.793Z,14.83
2022-10-04T03:35:49.138Z,14.75
2022-10-04T03:38:15.473Z,14.76
2022-10-04T03:40:41.807Z,14.79
2022-10-04T03:43:08.147Z,14.75
2022-10-04T03:45:34.504Z,14.68
2022-10-04T03:48:00.785Z,14.62
2022-10-04T03:50:27.109Z,14.60
2022-10-04T03:52:53.452Z,14.63
2022-10-04T03:55:19.769Z,14.55
2022-10-04T03:57:46.132Z,14.59
2022-10-04T04:00:12.464Z,14.55
2022-10-04T04:02:42.465Z,14.54
2022-10-04T04:05:05.180Z,14.57
2022-10-04T04:07:31.523Z,14.45
2022-10-04T04:09:57.854Z,14.48
2022-10-04T04:12:24.194Z,14.37
2022-10-04T04:14:50.539Z,14.26
2022-10-04T04:17:16.875Z,14.33
2022-10-04T04:19:43.197Z,14.40
2022-10-04T04:22:09.579Z,14.36
2022-10-04T04:24:35.934Z,14.34
2022-10-04T04:27:02.349Z,14.33
2022-10-04T04:29:28.712Z,14.28
2022-10-04T04:31:55.105Z,14.34
2022-10-04T04:34:21.377Z,14.35
2022-10-04T04:36:47.717Z,14.38
2022-10-04T04:39:14.056Z,14.47
2022-10-04T04:41:40.618Z,14.52
2022-10-04T04:44:06.715Z,14.59
2022-10-04T04:46:33.120Z,14.60
2022-10-04T04:48:59.483Z,14.58
2022-10-04T04:51:25.806Z,14.55
2022-10-04T04:53:52.191Z,14.57
2022-10-04T04:56:18.526Z,14.56
2022-10-04T04:58:44.864Z,14.50
2022-10-04T05:01:11.224Z,14.50
2022-10-04T05:03:37.587Z,14.63
2022-10-04T05:06:03.929Z,14.59
2022-10-04T05:08:30.261Z,14.69
2022-10-04T05:10:56.602Z,14.73
2022-10-04T05:13:22.944Z,15.05
2022-10-04T05:15:49.303Z,15.68
2022-10-04T05:18:15.620Z,16.15
2022-10-04T05:20:41.942Z,16.58
2022-10-04T05:23:08.263Z,16.88
2022-10-04T05:25:34.607Z,16.56
2022-10-04T05:28:01.021Z,16.17
2022-10-04T05:30:27.342Z,15.85
2022-10-04T05:32:53.656Z,15.67
2022-10-04T05:35:19.997Z,15.51
2022-10-04T05:37:46.352Z,15.74
2022-10-04T05:40:12.692Z,16.63
2022-10-04T05:42:39.008Z,17.28
2022-10-04T05:45:05.379Z,17.32
2022-10-04T05:47:31.693Z,17.73
2022-10-04T05:49:58.035Z,17.83
2022-10-04T05:52:24.346Z,17.78
2022-10-04T05:54:50.674Z,18.09
2022-10-04T05:57:17.015Z,18.33
2022-10-04T05:59:43.369Z,18.20
2022-10-04T06:02:09.791Z,18.06
2022-10-04T06:04:36.084Z,18.26
2022-10-04T06:07:02.413Z,18.55
2022-10-04T06:09:28.736Z,18.71
2022-10-04T06:11:55.114Z,18.38
2022-10-04T06:14:21.529Z,18.43
2022-10-04T06:16:47.949Z,18.28
2022-10-04T06:19:14.241Z,18.27
2022-10-04T06:21:41.011Z,18.56
2022-10-04T06:24:06.929Z,18.59
2022-10-04T06:26:33.271Z,18.91
2022-10-04T06:28:59.618Z,18.86
2022-10-04T06:31:25.951Z,19.11
2022-10-04T06:33:52.330Z,19.32
2022-10-04T06:36:18.666Z,19.24
2022-10-04T06:38:45.009Z,19.42
2022-10-04T06:41:11.356Z,19.32
2022-10-04T06:43:37.716Z,19.64
2022-10-04T06:46:04.123Z,19.75
2022-10-04T06:48:30.396Z,19.53
2022-10-04T06:50:56.780Z,19.93
2022-10-04T06:53:23.104Z,19.99
2022-10-04T06:55:49.441Z,19.52
2022-10-04T06:58:15.789Z,19.39
2022-10-04T07:00:42.103Z,19.64
2022-10-04T07:03:08.432Z,19.57
2022-10-04T07:05:34.800Z,19.86
2022-10-04T07:08:01.126Z,19.87
2022-10-04T07:10:27.461Z,20.56
2022-10-04T07:12:53.781Z,19.29
2022-10-04T07:15:20.102Z,19.22
2022-10-04T07:17:46.427Z,18.56
2022-10-04T07:20:12.769Z,18.77
2022-10-04T07:22:39.157Z,18.97
2022-10-04T07:25:05.491Z,18.57
2022-10-04T07:27:31.809Z,18.12
2022-10-04T07:29:58.152Z,17.59
2022-10-04T07:32:24.471Z,17.61
2022-10-04T07:34:50.811Z,17.35
2022-10-04T07:37:17.133Z,17.40
2022-10-04T07:39:43.454Z,17.49
2022-10-04T07:42:09.792Z,17.67
2022-10-04T07:44:36.112Z,17.75
2022-10-04T07:47:02.442Z,17.88
2022-10-04T07:49:28.783Z,17.86
2022-10-04T07:51:55.110Z,17.76
2022-10-04T07:54:21.456Z,17.76
2022-10-04T07:56:47.798Z,17.63
2022-10-04T07:59:14.115Z,17.37
2022-10-04T08:01:40.555Z,17.40
2022-10-04T08:04:06.786Z,17.53
2022-10-04T08:06:33.124Z,17.66
2022-10-04T08:08:59.571Z,17.75
2022-10-04T08:11:25.876Z,17.82
2022-10-04T08:13:52.216Z,18.17
2022-10-04T08:16:18.616Z,18.21
2022-10-04T08:18:44.863Z,18.35
2022-10-04T08:21:11.215Z,18.57
2022-10-04T08:23:37.533Z,18.59
2022-10-04T08:26:03.881Z,18.50
2022-10-04T08:28:30.241Z,18.34
2022-10-04T08:30:56.634Z,18.53
2022-10-04T08:33:22.917Z,18.71
2022-10-04T08:35:49.236Z,18.86
2022-10-04T08:38:15.580Z,18.61
2022-10-04T08:40:41.925Z,18.77
2022-10-04T08:43:08.300Z,19.56
2022-10-04T08:45:34.643Z,19.93
2022-10-04T08:48:00.975Z,19.92
2022-10-04T08:50:27.307Z,20.11
2022-10-04T08:52:53.631Z,20.01
2022-10-04T08:55:19.975Z,19.94
2022-10-04T08:57:46.309Z,20.24
2022-10-04T09:00:12.630Z,20.01
2022-10-04T09:02:39.034Z,20.00
2022-10-04T09:05:05.282Z,19.86
2022-10-04T09:07:31.622Z,20.16
2022-10-04T09:09:57.982Z,20.21
2022-10-04T09:12:24.320Z,19.85
2022-10-04T09:14:50.634Z,19.84
2022-10-04T09:17:21.847Z,19.59
2022-10-04T09:19:43.297Z,19.78
2022-10-04T09:22:09.636Z,20.07
2022-10-04T09:24:35.989Z,20.46
2022-10-04T09:27:02.302Z,20.77
2022-10-04T09:29:28.658Z,22.16
2022-10-04T09:31:54.977Z,22.42
2022-10-04T09:34:21.308Z,21.70
2022-10-04T09:36:47.624Z,21.42
2022-10-04T09:39:29.400Z,20.60
2022-10-04T09:41:40.271Z,20.60
2022-10-04T09:44:06.618Z,20.85
2022-10-04T09:46:33.081Z,20.52
2022-10-04T09:48:59.299Z,21.34
2022-10-04T09:51:25.637Z,21.41
2022-10-04T09:53:52.001Z,21.65
2022-10-04T09:56:18.318Z,22.37
2022-10-04T09:58:44.664Z,22.88
2022-10-04T10:01:10.987Z,23.54
2022-10-04T10:03:37.308Z,23.37
2022-10-04T10:06:03.652Z,23.34
2022-10-04T10:08:29.976Z,23.59
2022-10-04T10:10:56.320Z,24.42
2022-10-04T10:13:22.680Z,23.61
2022-10-04T10:15:49.033Z,22.69
2022-10-04T10:18:15.349Z,22.44
2022-10-04T10:20:41.684Z,21.54
2022-10-04T10:23:08.038Z,21.40
2022-10-04T10:25:34.341Z,21.08
2022-10-04T10:28:00.708Z,21.74
2022-10-04T10:30:27.028Z,21.85
2022-10-04T10:32:53.369Z,21.44
2022-10-04T10:35:19.683Z,21.41
2022-10-04T10:37:46.009Z,21.75
2022-10-04T10:40:12.426Z,22.34
2022-10-04T10:42:38.673Z,22.29
2022-10-04T10:45:04.989Z,21.58
2022-10-04T10:47:31.319Z,21.55
2022-10-04T10:49:57.663Z,22.41
2022-10-04T10:52:24.096Z,22.67
2022-10-04T10:54:50.403Z,22.92
2022-10-04T10:57:16.743Z,22.23
2022-10-04T10:59:43.111Z,21.77
2022-10-04T11:02:09.502Z,21.51
2022-10-04T11:04:35.775Z,21.35
2022-10-04T11:07:02.097Z,20.86
2022-10-04T11:09:28.415Z,21.37
2022-10-04T11:11:54.733Z,21.61
2022-10-04T11:14:21.084Z,22.16
2022-10-04T11:16:47.717Z,22.83
2022-10-04T11:19:13.790Z,23.11
2022-10-04T11:21:40.125Z,23.67
2022-10-04T11:24:06.467Z,24.17
2022-10-04T11:26:32.789Z,24.72
2022-10-04T11:28:59.105Z,23.39
2022-10-04T11:31:25.453Z,22.56
2022-10-04T11:33:51.753Z,22.22
2022-10-04T11:36:18.074Z,21.88
2022-10-04T11:38:44.423Z,21.54
2022-10-04T11:41:10.773Z,21.21
2022-10-04T11:43:37.116Z,21.19
2022-10-04T11:46:07.278Z,21.03
2022-10-04T11:48:29.799Z,21.14
2022-10-04T11:50:56.140Z,21.22
2022-10-04T11:53:22.484Z,21.21
2022-10-04T11:55:48.805Z,21.53
2022-10-04T11:58:15.138Z,21.65
2022-10-04T12:00:41.481Z,21.44
2022-10-04T12:03:07.854Z,21.23
2022-10-04T12:05:34.163Z,21.34
2022-10-04T12:08:00.504Z,21.30
2022-10-04T12:18:12.615Z,22.58
2022-10-04T12:20:38.942Z,22.22
2022-10-04T12:23:05.328Z,21.91
2022-10-04T12:25:31.644Z,21.77
2022-10-04T12:27:58.042Z,22.12
2022-10-04T12:30:24.336Z,21.82
2022-10-04T12:32:54.326Z,21.51
2022-10-04T12:35:17.052Z,22.65
2022-10-04T12:37:43.377Z,23.46
2022-10-04T12:40:09.696Z,23.81
2022-10-04T12:42:36.041Z,22.75
2022-10-04T12:45:02.372Z,22.61
2022-10-04T12:47:28.691Z,22.32
2022-10-04T12:49:55.043Z,22.03
2022-10-04T12:52:21.358Z,21.46
2022-10-04T12:54:47.691Z,21.24
2022-10-04T12:57:14.046Z,20.90
2022-10-04T12:59:40.373Z,20.73
2022-10-04T13:02:06.852Z,20.61
2022-10-04T13:04:33.138Z,20.48
2022-10-04T13:06:59.482Z,20.35
2022-10-04T13:09:25.802Z,20.33
2022-10-04T13:11:52.159Z,20.35
2022-10-04T13:14:18.513Z,20.60
2022-10-04T13:19:11.154Z,21.00
2022-10-04T13:21:37.473Z,20.93
2022-10-04T13:24:03.800Z,20.79
2022-10-04T13:26:30.130Z,20.68
2022-10-04T13:28:56.470Z,20.64
2022-10-04T13:31:22.890Z,20.55
2022-10-04T13:33:49.135Z,20.38
2022-10-04T13:36:15.474Z,20.15
2022-10-04T13:38:41.811Z,20.09
2022-10-04T13:41:08.133Z,20.17
2022-10-04T13:43:34.457Z,19.99
2022-10-04T13:46:00.900Z,19.90
2022-10-04T13:48:27.168Z,19.93
2022-10-04T13:50:53.504Z,20.11
2022-10-04T13:53:19.849Z,20.30
2022-10-04T13:55:46.185Z,20.52
2022-10-04T13:58:12.534Z,20.60
2022-10-04T14:00:38.955Z,20.44
2022-10-04T14:03:05.257Z,20.48
2022-10-04T14:05:31.538Z,20.35
2022-10-04T14:07:57.858Z,20.19
2022-10-04T14:10:24.181Z,19.92
2022-10-04T14:12:50.503Z,19.82
2022-10-04T14:15:16.823Z,19.89
2022-10-04T14:17:43.185Z,19.80
2022-10-04T14:20:09.498Z,19.71
2022-10-04T14:22:35.844Z,19.92
2022-10-04T14:25:02.184Z,19.71
2022-10-04T14:27:28.526Z,19.56
2022-10-04T14:29:54.842Z,19.60
2022-10-04T14:32:21.273Z,19.49
2022-10-04T14:34:47.515Z,19.38
2022-10-04T14:37:13.838Z,19.44
2022-10-04T14:39:40.172Z,19.41
2022-10-04T14:42:06.498Z,19.43
2022-10-04T14:44:32.857Z,19.36
2022-10-04T14:46:59.180Z,19.37
2022-10-04T14:49:25.532Z,19.42
2022-10-04T14:51:51.872Z,19.27
2022-10-04T14:54:18.192Z,18.96
2022-10-04T14:56:44.861Z,18.85
2022-10-04T14:59:10.855Z,18.72
2022-10-04T15:01:37.276Z,18.59
2022-10-04T15:04:03.584Z,18.59
2022-10-04T15:06:29.863Z,18.64
2022-10-04T15:08:56.201Z,18.68
2022-10-04T15:11:22.525Z,18.63
2022-10-04T15:13:48.899Z,18.56
2022-10-04T15:16:15.308Z,18.53
2022-10-04T15:18:41.578Z,18.52
2022-10-04T15:21:07.945Z,18.51
2022-10-04T15:23:34.266Z,18.37
2022-10-04T15:26:00.587Z,18.28
2022-10-04T15:28:27.012Z,18.32
2022-10-04T15:30:53.335Z,18.34
2022-10-04T15:33:19.632Z,18.40
2022-10-04T15:35:45.953Z,18.28
2022-10-04T15:38:12.267Z,18.29
2022-10-04T15:40:38.614Z,18.17
2022-10-04T15:43:04.949Z,18.19
2022-10-04T15:45:31.342Z,18.11
2022-10-04T15:47:57.618Z,18.08
2022-10-04T15:50:23.963Z,17.88
2022-10-04T15:52:50.330Z,17.83
2022-10-04T15:55:16.670Z,17.88
2022-10-04T15:57:43.158Z,17.85
2022-10-04T16:00:09.501Z,17.85
2022-10-04T16:02:35.889Z,17.82
2022-10-04T16:05:02.167Z,17.78
2022-10-04T16:07:28.488Z,17.73
2022-10-04T16:09:54.812Z,17.70
2022-10-04T16:12:21.133Z,17.73
2022-10-04T16:14:47.479Z,17.66
2022-10-04T16:17:13.817Z,17.58
2022-10-04T16:19:40.344Z,17.54
2022-10-04T16:22:06.675Z,17.53
2022-10-04T16:24:33.081Z,17.51
2022-10-04T16:26:59.411Z,17.49
2022-10-04T16:29:25.761Z,17.48
2022-10-04T16:31:52.080Z,17.48
2022-10-04T16:34:18.408Z,17.48
2022-10-04T16:36:44.974Z,17.46
2022-10-04T16:39:11.070Z,17.42
2022-10-04T16:41:37.406Z,17.49
2022-10-04T16:44:04.113Z,17.46
2022-10-04T16:46:30.785Z,17.50
2022-10-04T16:48:57.132Z,17.46
2022-10-04T16:51:23.465Z,17.47
2022-10-04T16:53:49.787Z,17.52
2022-10-04T16:56:16.150Z,17.54
2022-10-04T16:58:42.523Z,17.49
2022-10-04T17:01:08.902Z,17.52
2022-10-04T17:03:35.276Z,17.60
2022-10-04T17:06:01.579Z,17.49
2022-10-04T17:08:27.898Z,17.50
2022-10-04T17:10:54.233Z,17.54
2022-10-04T17:13:20.598Z,17.53
2022-10-04T17:15:46.984Z,17.42
2022-10-04T17:18:13.296Z,17.38
2022-10-04T17:20:39.642Z,17.37
2022-10-04T17:23:05.968Z,17.38
2022-10-04T17:25:32.348Z,17.26
2022-10-04T17:27:58.702Z,17.20
2022-10-04T17:30:24.994Z,17.21
2022-10-04T17:32:51.326Z,17.08
2022-10-04T17:35:17.671Z,17.15
2022-10-04T17:37:43.991Z,17.14
2022-10-04T17:40:10.323Z,17.15
2022-10-04T17:42:36.656Z,17.15
2022-10-04T17:45:02.980Z,17.15
2022-10-04T17:47:29.351Z,17.14
2022-10-04T17:49:55.668Z,17.13
2022-10-04T17:52:22.010Z,17.09
2022-10-04T17:54:48.353Z,17.11
2022-10-04T17:57:14.698Z,17.10
2022-10-04T17:59:41.040Z,17.10
2022-10-04T18:02:07.501Z,17.17
2022-10-04T18:04:33.726Z,17.17
2022-10-04T18:07:00.044Z,17.23
2022-10-04T18:09:26.367Z,17.17
2022-10-04T18:11:52.711Z,17.19
2022-10-04T18:14:19.038Z,17.14
2022-10-04T18:16:45.633Z,17.14
2022-10-04T18:19:11.705Z,17.12
2022-10-04T18:21:38.049Z,17.15
2022-10-04T18:24:04.380Z,17.19
2022-10-04T18:26:30.726Z,17.13
2022-10-04T18:28:57.071Z,17.05
2022-10-04T18:31:23.475Z,17.00
2022-10-04T18:33:49.717Z,16.95
2022-10-04T18:36:16.057Z,16.87
2022-10-04T18:38:42.372Z,16.89
2022-10-04T18:41:08.707Z,16.82
2022-10-04T18:43:35.130Z,16.78
2022-10-04T18:46:01.470Z,16.76
2022-10-04T18:48:27.788Z,16.76
2022-10-04T18:50:54.110Z,16.72
2022-10-04T18:53:20.454Z,16.71
2022-10-04T18:55:46.825Z,16.69
2022-10-04T18:58:13.137Z,16.63
2022-10-04T19:00:39.532Z,16.55
2022-10-04T19:03:05.838Z,16.59
2022-10-04T19:05:32.156Z,16.55
2022-10-04T19:07:58.480Z,16.47
2022-10-04T19:10:24.817Z,16.42
2022-10-04T19:12:51.149Z,16.41
2022-10-04T19:15:17.495Z,16.43
2022-10-04T19:17:43.864Z,16.45
2022-10-04T19:20:11.445Z,16.38
2022-10-04T19:22:36.553Z,16.39
2022-10-04T19:25:02.900Z,16.44
2022-10-04T19:27:29.284Z,16.45
2022-10-04T19:29:55.600Z,16.40
2022-10-04T19:32:21.908Z,16.31
2022-10-04T19:34:48.254Z,16.13
2022-10-04T19:37:14.607Z,16.10
2022-10-04T19:39:40.928Z,16.08
2022-10-04T19:42:07.274Z,16.13
2022-10-04T19:44:33.657Z,16.13
2022-10-04T19:46:59.976Z,16.00
2022-10-04T19:49:26.299Z,15.91
2022-10-04T19:51:52.727Z,15.83
2022-10-04T19:54:19.050Z,15.80
2022-10-04T19:56:45.637Z,15.84
2022-10-04T19:59:11.709Z,15.85
2022-10-04T20:01:38.057Z,15.90
2022-10-04T20:04:04.460Z,15.77
2022-10-04T20:06:30.748Z,15.67
2022-10-04T20:09:02.199Z,15.64
2022-10-04T20:11:23.448Z,15.59
2022-10-04T20:13:49.789Z,15.55
2022-10-04T20:16:16.133Z,15.59
2022-10-04T20:18:42.486Z,15.63
2022-10-04T20:21:08.824Z,15.60
2022-10-04T20:23:35.166Z,15.62
2022-10-04T20:26:01.533Z,15.62
2022-10-04T20:28:27.939Z,15.61
2022-10-04T20:30:54.216Z,15.62
2022-10-04T20:33:20.549Z,15.54
2022-10-04T20:35:46.905Z,15.59
2022-10-04T20:38:31.219Z,15.58
2022-10-04T20:40:39.819Z,15.50
2022-10-04T20:43:10.225Z,15.48
2022-10-04T20:45:32.530Z,15.40
2022-10-04T20:47:58.852Z,15.40
2022-10-04T20:50:25.224Z,15.47
2022-10-04T20:52:51.514Z,15.35
2022-10-04T20:55:17.845Z,15.32
2022-10-04T20:57:44.190Z,15.27
2022-10-04T21:00:10.587Z,15.24
2022-10-04T21:02:36.923Z,15.22
2022-10-04T21:05:03.348Z,15.21
2022-10-04T21:07:29.682Z,15.19
2022-10-04T21:09:56.013Z,15.11
2022-10-04T21:12:22.351Z,15.05
2022-10-04T21:14:48.668Z,14.99
2022-10-04T21:17:15.011Z,14.92
2022-10-04T21:19:41.347Z,14.88
2022-10-04T21:22:07.718Z,14.89
2022-10-04T21:24:34.033Z,14.86
2022-10-04T21:27:00.379Z,14.91
2022-10-04T21:29:26.735Z,14.88
2022-10-04T21:31:53.089Z,14.86
2022-10-04T21:34:41.107Z,14.81
2022-10-04T21:36:46.006Z,14.73
2022-10-04T21:39:12.076Z,14.74
2022-10-04T21:41:38.446Z,14.76
2022-10-04T21:44:04.791Z,14.81
2022-10-04T21:46:31.178Z,14.79
2022-10-04T21:48:57.434Z,14.83
2022-10-04T21:51:23.771Z,14.80
2022-10-04T21:53:50.114Z,14.76
2022-10-04T21:56:16.448Z,14.76
2022-10-04T21:58:42.840Z,14.74
2022-10-04T22:01:09.218Z,14.75
2022-10-04T22:03:35.486Z,14.80
2022-10-04T22:06:01.869Z,14.62
2022-10-04T22:08:28.189Z,14.43
2022-10-04T22:10:57.712Z,14.26
2022-10-04T22:13:20.856Z,14.19
2022-10-04T22:15:47.173Z,14.04
2022-10-04T22:18:13.494Z,13.93
2022-10-04T22:20:39.874Z,13.80
2022-10-04T22:23:06.216Z,13.68
2022-10-04T22:25:32.531Z,13.60
2022-10-04T22:27:58.980Z,13.55
2022-10-04T22:30:25.257Z,13.53
2022-10-04T22:32:51.600Z,13.53
2022-10-04T22:35:17.925Z,13.57
2022-10-04T22:37:44.270Z,13.41
2022-10-04T22:40:10.607Z,13.39
2022-10-04T22:42:36.944Z,13.18
2022-10-04T22:45:03.304Z,13.04
2022-10-04T22:47:29.644Z,13.03
2022-10-04T22:49:55.976Z,13.00
2022-10-04T22:52:22.321Z,13.01
2022-10-04T22:54:48.633Z,12.89
2022-10-04T22:57:14.978Z,12.96
2022-10-04T22:59:41.315Z,12.94
2022-10-04T23:02:07.637Z,12.97
2022-10-04T23:04:34.023Z,13.03
2022-10-04T23:07:00.292Z,13.11
2022-10-04T23:09:26.623Z,13.08
2022-10-04T23:11:52.946Z,13.26
2022-10-04T23:14:19.283Z,13.19
2022-10-04T23:16:45.826Z,13.14
2022-10-04T23:19:11.941Z,13.07
2022-10-04T23:21:38.265Z,12.85
2022-10-04T23:24:04.603Z,12.64
2022-10-04T23:26:30.945Z,12.52
2022-10-04T23:28:57.259Z,12.43
2022-10-04T23:31:23.677Z,12.40
2022-10-04T23:33:49.948Z,12.20
2022-10-04T23:36:16.270Z,12.09
2022-10-04T23:38:42.652Z,12.02
2022-10-04T23:41:08.967Z,11.98
2022-10-04T23:43:35.294Z,11.94
2022-10-04T23:46:01.715Z,11.98
2022-10-04T23:48:27.958Z,12.13
2022-10-04T23:50:54.310Z,12.30
2022-10-04T23:53:20.705Z,12.46
2022-10-04T23:55:47.045Z,12.56
2022-10-04T23:58:13.357Z,12.43
